createdAt,value
2018-03-26T00:00:03.324Z,60.30
2018-03-26T00:02:30.802Z,60.20
2018-03-26T00:04:58.286Z,60.60
2018-03-26T00:07:25.733Z,61.30
2018-03-26T00:09:53.163Z,60.90
2018-03-26T00:12:20.593Z,61.10
2018-03-26T00:14:48.809Z,61.60
2018-03-26T00:17:16.282Z,61.50
2018-03-26T00:19:44.504Z,63.40
2018-03-26T00:22:12.693Z,63.70
2018-03-26T00:24:40.143Z,63.70
2018-03-26T00:27:07.614Z,64.60
2018-03-26T00:29:35.806Z,65.90
2018-03-26T00:32:03.262Z,65.90
2018-03-26T00:34:30.694Z,65.70
2018-03-26T00:36:58.145Z,66.70
2018-03-26T00:39:25.582Z,67.00
2018-03-26T00:41:53.789Z,67.20
2018-03-26T00:44:21.220Z,67.10
2018-03-26T00:46:49.435Z,68.60
2018-03-26T00:49:16.892Z,68.60
2018-03-26T00:51:45.275Z,68.60
2018-03-26T00:54:12.718Z,68.50
2018-03-26T00:56:40.158Z,69.80
2018-03-26T00:59:08.375Z,70.30
2018-03-26T01:01:36.602Z,71.60
2018-03-26T01:04:04.834Z,72.10
2018-03-26T01:06:32.271Z,72.10
2018-03-26T01:09:00.303Z,72.90
2018-03-26T01:11:28.840Z,73.80
2018-03-26T01:13:56.280Z,73.70
2018-03-26T01:16:24.488Z,74.90
2018-03-26T01:18:51.930Z,74.80
2018-03-26T01:21:20.701Z,75.20
2018-03-26T01:23:48.172Z,75.40
2018-03-26T01:26:15.635Z,76.30
2018-03-26T01:28:43.086Z,76.60
2018-03-26T01:31:10.514Z,76.80
2018-03-26T01:33:37.964Z,76.60
2018-03-26T01:36:06.168Z,77.90
2018-03-26T01:38:33.619Z,77.80
2018-03-26T01:41:01.065Z,77.70
2018-03-26T01:43:28.522Z,78.30
2018-03-26T01:45:55.987Z,77.40
2018-03-26T01:48:23.433Z,77.30
2018-03-26T01:50:50.865Z,77.30
2018-03-26T01:53:20.960Z,78.40
2018-03-26T01:55:48.401Z,78.30
2018-03-26T01:58:15.841Z,78.70
2018-03-26T02:00:43.285Z,78.60
2018-03-26T02:03:10.762Z,79.60
2018-03-26T02:05:38.212Z,79.90
2018-03-26T02:08:05.667Z,80.50
2018-03-26T02:10:33.103Z,80.00
2018-03-26T02:13:01.529Z,80.10
2018-03-26T02:15:28.960Z,80.00
2018-03-26T02:17:56.415Z,80.80
2018-03-26T02:20:23.856Z,80.50
2018-03-26T02:22:52.069Z,80.10
2018-03-26T02:25:20.849Z,80.30
2018-03-26T02:27:48.609Z,80.30
2018-03-26T02:30:16.054Z,80.70
2018-03-26T02:32:43.545Z,80.50
2018-03-26T02:35:10.982Z,82.10
2018-03-26T02:37:38.429Z,81.70
2018-03-26T02:40:05.861Z,81.90
2018-03-26T02:42:34.677Z,82.20
2018-03-26T02:45:02.123Z,82.20
2018-03-26T02:47:30.345Z,83.30
2018-03-26T02:49:57.777Z,83.30
2018-03-26T02:52:25.216Z,83.30
2018-03-26T02:54:52.691Z,83.60
2018-03-26T02:57:20.186Z,83.50
2018-03-26T02:59:47.621Z,83.10
2018-03-26T03:02:15.073Z,82.80
2018-03-26T03:04:42.512Z,82.30
2018-03-26T03:07:09.945Z,82.60
2018-03-26T03:09:38.169Z,82.70
2018-03-26T03:12:05.624Z,82.70
2018-03-26T03:14:33.928Z,83.90
2018-03-26T03:17:01.365Z,84.00
2018-03-26T03:19:28.819Z,82.70
2018-03-26T03:21:56.248Z,82.30
2018-03-26T03:24:23.723Z,82.20
2018-03-26T03:26:51.162Z,82.10
2018-03-26T03:29:18.609Z,81.60
2018-03-26T03:31:46.065Z,82.30
2018-03-26T03:34:14.273Z,81.90
2018-03-26T03:36:41.717Z,81.80
2018-03-26T03:39:09.153Z,82.40
2018-03-26T03:41:37.357Z,82.70
2018-03-26T03:44:04.822Z,82.60
2018-03-26T03:46:32.255Z,82.50
2018-03-26T03:48:59.727Z,82.40
2018-03-26T03:51:27.189Z,82.10
2018-03-26T03:56:12.892Z,82.50
2018-03-26T03:58:40.344Z,82.60
2018-03-26T04:01:07.777Z,82.90
2018-03-26T04:03:35.217Z,82.30
2018-03-26T04:06:03.438Z,82.40
2018-03-26T04:08:30.906Z,82.30
2018-03-26T04:10:58.324Z,82.70
2018-03-26T04:13:25.764Z,82.10
2018-03-26T04:15:53.989Z,82.90
2018-03-26T04:18:21.435Z,82.90
2018-03-26T04:20:48.860Z,83.40
2018-03-26T04:23:17.073Z,83.10
2018-03-26T04:25:44.529Z,83.10
2018-03-26T04:28:12.478Z,83.20
2018-03-26T04:30:39.931Z,83.20
2018-03-26T04:33:08.142Z,84.10
2018-03-26T04:35:35.593Z,83.90
2018-03-26T04:38:03.050Z,84.10
2018-03-26T04:40:30.513Z,84.50
2018-03-26T04:42:57.956Z,85.30
2018-03-26T04:45:25.421Z,85.60
2018-03-26T04:47:52.875Z,85.50
2018-03-26T04:50:20.497Z,86.40
2018-03-26T04:52:47.897Z,86.80
2018-03-26T04:55:15.348Z,86.00
2018-03-26T04:57:42.821Z,86.40
2018-03-26T05:00:10.280Z,86.00
2018-03-26T05:02:37.726Z,86.60
2018-03-26T05:05:05.186Z,86.60
2018-03-26T05:07:32.609Z,86.30
2018-03-26T05:10:00.864Z,85.50
2018-03-26T05:12:28.302Z,85.50
2018-03-26T05:14:55.758Z,84.40
2018-03-26T05:17:23.812Z,84.80
2018-03-26T05:19:51.259Z,84.60
2018-03-26T05:22:18.713Z,84.40
2018-03-26T05:24:46.176Z,85.70
2018-03-26T05:27:13.610Z,85.90
2018-03-26T05:29:41.044Z,86.70
2018-03-26T05:32:09.261Z,86.20
2018-03-26T05:34:36.705Z,86.20
2018-03-26T05:37:04.161Z,87.20
2018-03-26T05:39:31.609Z,85.20
2018-03-26T05:41:59.036Z,86.40
2018-03-26T05:44:26.489Z,86.70
2018-03-26T05:46:53.936Z,87.70
2018-03-26T05:49:21.386Z,87.10
2018-03-26T05:51:48.823Z,87.30
2018-03-26T05:54:16.257Z,87.80
2018-03-26T05:56:43.700Z,87.60
2018-03-26T05:59:11.899Z,87.70
2018-03-26T06:01:39.328Z,87.60
2018-03-26T06:04:08.793Z,86.80
2018-03-26T06:06:36.232Z,86.80
2018-03-26T06:09:03.661Z,87.90
2018-03-26T06:11:31.125Z,87.80
2018-03-26T06:13:58.704Z,88.20
2018-03-26T06:16:26.285Z,88.30
2018-03-26T06:18:53.723Z,88.30
2018-03-26T06:21:21.160Z,88.40
2018-03-26T06:23:49.352Z,89.30
2018-03-26T06:26:16.790Z,89.30
2018-03-26T06:28:44.218Z,89.10
2018-03-26T06:31:11.670Z,87.80
2018-03-26T06:33:39.095Z,87.50
2018-03-26T06:39:01.861Z,87.60
2018-03-26T06:41:29.322Z,86.50
2018-03-26T06:43:56.781Z,86.80
2018-03-26T06:46:24.240Z,86.40
2018-03-26T06:48:51.682Z,86.30
2018-03-26T06:51:19.105Z,85.50
2018-03-26T06:53:47.300Z,84.20
2018-03-26T06:56:14.736Z,84.10
2018-03-26T06:58:42.956Z,83.00
2018-03-26T07:01:10.390Z,83.00
2018-03-26T07:03:37.830Z,82.50
2018-03-26T07:06:06.040Z,82.50
2018-03-26T07:08:33.481Z,83.30
2018-03-26T07:11:00.941Z,82.70
2018-03-26T07:13:28.378Z,82.60
2018-03-26T07:15:56.578Z,82.50
2018-03-26T07:18:24.021Z,82.40
2018-03-26T07:20:52.213Z,82.10
2018-03-26T07:23:20.585Z,82.10
2018-03-26T07:25:48.017Z,81.40
2018-03-26T07:28:16.215Z,83.50
2018-03-26T07:30:43.654Z,83.50
2018-03-26T07:33:11.848Z,83.40
2018-03-26T07:35:39.284Z,83.40
2018-03-26T07:38:06.725Z,84.00
2018-03-26T07:40:34.165Z,84.70
2018-03-26T07:43:01.604Z,82.90
2018-03-26T07:45:29.042Z,82.30
2018-03-26T07:47:56.502Z,80.90
2018-03-26T07:50:23.945Z,79.50
2018-03-26T07:52:51.388Z,78.40
2018-03-26T07:55:18.817Z,75.30
2018-03-26T07:57:46.254Z,70.00
2018-03-26T08:00:13.703Z,68.20
2018-03-26T08:02:41.132Z,64.80
2018-03-26T08:05:08.569Z,62.50
2018-03-26T08:07:36.777Z,60.00
2018-03-26T08:10:04.214Z,59.90
2018-03-26T08:12:31.680Z,59.00
2018-03-26T08:14:59.869Z,57.70
2018-03-26T08:17:27.312Z,57.70
2018-03-26T08:19:54.745Z,55.80
2018-03-26T08:22:22.973Z,57.30
2018-03-26T08:24:50.393Z,57.20
2018-03-26T08:27:18.589Z,56.60
2018-03-26T08:29:46.026Z,56.60
2018-03-26T08:32:13.460Z,56.60
2018-03-26T08:34:41.673Z,55.90
2018-03-26T08:37:09.114Z,55.80
2018-03-26T08:39:37.310Z,54.90
2018-03-26T08:42:04.762Z,54.90
2018-03-26T08:44:32.201Z,55.30
2018-03-26T08:47:00.390Z,55.30
2018-03-26T08:49:27.843Z,55.30
2018-03-26T08:51:55.293Z,56.70
2018-03-26T08:54:23.484Z,54.90
2018-03-26T08:56:50.974Z,54.80
2018-03-26T08:59:18.417Z,53.40
2018-03-26T09:01:45.841Z,52.30
2018-03-26T09:04:13.279Z,49.10
2018-03-26T09:06:41.502Z,46.90
2018-03-26T09:09:08.947Z,46.80
2018-03-26T09:11:36.380Z,44.40
2018-03-26T09:14:04.589Z,42.10
2018-03-26T09:16:32.045Z,42.00
2018-03-26T09:18:59.473Z,42.80
2018-03-26T09:21:27.683Z,47.60
2018-03-26T09:23:55.125Z,47.60
2018-03-26T09:26:22.561Z,48.00
2018-03-26T09:28:50.000Z,46.00
2018-03-26T09:31:17.824Z,43.40
2018-03-26T09:33:45.277Z,42.10
2018-03-26T09:36:12.730Z,40.70
2018-03-26T09:38:40.186Z,39.00
2018-03-26T09:41:07.665Z,36.90
2018-03-26T09:43:35.817Z,35.40
2018-03-26T09:46:03.245Z,35.40
2018-03-26T09:48:31.453Z,33.20
2018-03-26T09:50:58.893Z,33.20
2018-03-26T09:53:26.351Z,32.00
2018-03-26T09:55:54.555Z,30.50
2018-03-26T09:58:21.997Z,30.50
2018-03-26T10:00:49.451Z,31.40
2018-03-26T10:03:17.628Z,29.30
2018-03-26T10:05:45.081Z,29.20
2018-03-26T10:08:12.533Z,28.90
2018-03-26T10:10:39.961Z,29.40
2018-03-26T10:13:08.177Z,27.60
2018-03-26T10:15:35.612Z,27.50
2018-03-26T10:18:03.824Z,28.30
2018-03-26T10:20:31.264Z,28.30
2018-03-26T10:22:58.704Z,30.20
2018-03-26T10:25:26.894Z,29.10
2018-03-26T10:27:54.322Z,29.10
2018-03-26T10:30:22.536Z,29.40
2018-03-26T10:32:49.980Z,29.30
2018-03-26T10:35:17.401Z,29.50
2018-03-26T10:37:46.317Z,29.50
2018-03-26T10:40:13.753Z,29.50
2018-03-26T10:42:41.964Z,30.40
2018-03-26T10:45:09.394Z,30.30
2018-03-26T10:47:37.602Z,32.90
2018-03-26T10:50:05.037Z,32.80
2018-03-26T10:52:33.234Z,33.20
2018-03-26T10:55:00.672Z,33.10
2018-03-26T10:57:28.104Z,33.00
2018-03-26T10:59:56.307Z,32.50
2018-03-26T11:02:23.756Z,32.50
2018-03-26T11:04:51.960Z,36.30
2018-03-26T11:07:19.397Z,36.20
2018-03-26T11:09:46.829Z,36.80
2018-03-26T11:12:15.049Z,37.90
2018-03-26T11:14:42.491Z,37.90
2018-03-26T11:17:09.917Z,34.00
2018-03-26T11:19:38.125Z,30.40
2018-03-26T11:22:05.591Z,30.30
2018-03-26T11:24:33.045Z,31.90
2018-03-26T11:27:00.481Z,33.90
2018-03-26T11:29:29.469Z,36.60
2018-03-26T11:31:57.680Z,37.20
2018-03-26T11:34:25.148Z,37.10
2018-03-26T11:36:52.583Z,38.50
2018-03-26T11:39:20.036Z,39.60
2018-03-26T11:41:47.498Z,40.60
2018-03-26T11:44:15.697Z,40.20
2018-03-26T11:46:43.157Z,40.10
2018-03-26T11:49:12.574Z,39.80
2018-03-26T11:51:40.907Z,39.70
2018-03-26T11:54:08.379Z,36.70
2018-03-26T11:56:35.809Z,37.10
2018-03-26T11:59:04.130Z,35.50
2018-03-26T12:01:31.567Z,35.50
2018-03-26T12:03:59.029Z,35.60
2018-03-26T12:06:26.518Z,36.80
2018-03-26T12:08:54.027Z,37.80
2018-03-26T12:11:21.431Z,36.50
2018-03-26T12:13:48.873Z,36.40
2018-03-26T12:16:16.330Z,36.30
2018-03-26T12:18:43.753Z,36.10
2018-03-26T12:21:11.941Z,34.70
2018-03-26T12:23:51.250Z,34.70
2018-03-26T12:26:19.433Z,34.50
2018-03-26T12:28:58.637Z,34.50
2018-03-26T12:31:26.068Z,34.50
2018-03-26T12:34:05.237Z,35.10
2018-03-26T12:36:32.694Z,35.30
2018-03-26T12:39:00.138Z,32.80
2018-03-26T12:41:27.564Z,32.50
2018-03-26T12:43:55.010Z,33.40
2018-03-26T12:46:34.301Z,34.30
2018-03-26T12:49:01.734Z,35.50
2018-03-26T12:51:40.954Z,36.20
2018-03-26T12:54:08.394Z,37.30
2018-03-26T12:56:35.842Z,38.20
2018-03-26T12:59:03.277Z,37.80
2018-03-26T13:01:43.313Z,37.70
2018-03-26T13:04:10.759Z,37.70
2018-03-26T13:06:38.195Z,37.10
2018-03-26T13:09:05.637Z,36.30
2018-03-26T13:11:33.060Z,35.90
2018-03-26T13:14:00.501Z,35.20
2018-03-26T13:16:28.710Z,36.30
2018-03-26T13:18:56.171Z,36.10
2018-03-26T13:21:23.589Z,34.20
2018-03-26T13:23:51.029Z,32.40
2018-03-26T13:26:18.468Z,28.60
2018-03-26T13:28:45.914Z,27.10
2018-03-26T13:31:13.349Z,27.50
2018-03-26T13:33:40.798Z,27.70
2018-03-26T13:36:08.236Z,28.20
2018-03-26T13:38:36.441Z,28.30
2018-03-26T13:41:03.884Z,27.80
2018-03-26T13:43:32.100Z,28.10
2018-03-26T13:45:59.569Z,28.10
2018-03-26T13:48:27.005Z,28.70
2018-03-26T13:50:54.442Z,28.70
2018-03-26T13:53:21.880Z,28.70
2018-03-26T13:55:50.109Z,28.90
2018-03-26T13:58:17.547Z,28.90
2018-03-26T14:00:44.998Z,30.10
2018-03-26T14:03:12.420Z,30.80
2018-03-26T14:05:39.869Z,29.90
2018-03-26T14:11:09.154Z,29.70
2018-03-26T14:13:43.224Z,29.50
2018-03-26T14:16:22.661Z,27.50
2018-03-26T14:18:50.871Z,29.00
2018-03-26T14:21:18.300Z,28.90
2018-03-26T14:23:46.484Z,32.70
2018-03-26T14:26:13.922Z,32.60
2018-03-26T14:28:42.132Z,33.30
2018-03-26T14:31:09.585Z,33.20
2018-03-26T14:33:37.006Z,33.80
2018-03-26T14:36:04.454Z,33.80
2018-03-26T14:38:31.906Z,34.50
2018-03-26T14:40:59.360Z,33.20
2018-03-26T14:43:27.557Z,34.90
2018-03-26T14:45:55.770Z,36.50
2018-03-26T14:48:23.215Z,36.50
2018-03-26T14:50:50.667Z,36.60
2018-03-26T14:53:18.093Z,37.10
2018-03-26T14:55:45.546Z,36.50
2018-03-26T14:58:12.992Z,36.80
2018-03-26T15:00:40.467Z,37.30
2018-03-26T15:03:07.885Z,37.20
2018-03-26T15:05:35.340Z,38.40
2018-03-26T15:08:02.795Z,38.90
2018-03-26T15:10:30.274Z,38.50
2018-03-26T15:12:57.706Z,39.80
2018-03-26T15:15:25.149Z,38.40
2018-03-26T15:17:52.573Z,38.60
2018-03-26T15:20:21.703Z,36.80
2018-03-26T15:22:49.129Z,36.60
2018-03-26T15:25:17.564Z,35.70
2018-03-26T15:27:45.007Z,36.50
2018-03-26T15:30:12.449Z,37.20
2018-03-26T15:32:39.886Z,37.00
2018-03-26T15:35:08.090Z,38.50
2018-03-26T15:37:35.537Z,38.40
2018-03-26T15:40:02.994Z,38.60
2018-03-26T15:42:31.218Z,38.80
2018-03-26T15:44:59.322Z,38.80
2018-03-26T15:47:27.524Z,39.90
2018-03-26T15:49:55.004Z,39.80
2018-03-26T15:52:22.438Z,39.90
2018-03-26T15:54:49.892Z,39.90
2018-03-26T15:57:18.103Z,40.00
2018-03-26T15:59:45.530Z,39.90
2018-03-26T16:02:12.479Z,40.60
2018-03-26T16:04:39.901Z,41.50
2018-03-26T16:07:08.114Z,41.90
2018-03-26T16:09:35.569Z,41.80
2018-03-26T16:12:03.012Z,41.90
2018-03-26T16:14:31.425Z,42.10
2018-03-26T16:16:58.845Z,42.10
2018-03-26T16:19:27.087Z,42.50
2018-03-26T16:21:54.520Z,42.50
2018-03-26T16:24:22.015Z,42.80
2018-03-26T16:26:49.456Z,43.70
2018-03-26T16:29:16.941Z,43.90
2018-03-26T16:31:45.145Z,43.90
2018-03-26T16:34:12.595Z,43.80
2018-03-26T16:36:40.067Z,44.30
2018-03-26T16:39:07.505Z,44.70
2018-03-26T16:41:47.449Z,44.40
2018-03-26T16:44:15.657Z,44.70
2018-03-26T16:46:43.115Z,44.70
2018-03-26T16:49:10.584Z,44.60
2018-03-26T16:51:38.019Z,45.20
2018-03-26T16:54:05.461Z,45.70
2018-03-26T16:56:32.906Z,45.10
2018-03-26T16:59:01.147Z,45.20
2018-03-26T17:01:28.587Z,45.20
2018-03-26T17:03:56.050Z,45.20
2018-03-26T17:06:23.491Z,45.00
2018-03-26T17:08:50.917Z,45.30
2018-03-26T17:11:19.134Z,46.30
2018-03-26T17:13:46.578Z,46.30
2018-03-26T17:16:14.005Z,46.60
2018-03-26T17:18:42.231Z,46.50
2018-03-26T17:21:09.689Z,46.50
2018-03-26T17:23:37.122Z,46.40
2018-03-26T17:26:04.557Z,46.20
2018-03-26T17:28:32.763Z,47.10
2018-03-26T17:31:00.215Z,47.10
2018-03-26T17:33:27.664Z,47.60
2018-03-26T17:35:55.109Z,47.40
2018-03-26T17:38:23.311Z,48.00
2018-03-26T17:40:50.761Z,47.90
2018-03-26T17:43:18.196Z,48.20
2018-03-26T17:45:45.637Z,48.40
2018-03-26T17:48:13.846Z,49.50
2018-03-26T17:50:41.302Z,49.50
2018-03-26T17:53:08.738Z,48.80
2018-03-26T17:55:36.944Z,48.90
2018-03-26T17:58:04.384Z,48.90
2018-03-26T18:00:31.825Z,49.00
2018-03-26T18:03:00.069Z,50.20
2018-03-26T18:05:27.492Z,50.10
2018-03-26T18:07:54.940Z,50.00
2018-03-26T18:10:22.393Z,50.40
2018-03-26T18:12:49.829Z,50.90
2018-03-26T18:15:18.039Z,51.40
2018-03-26T18:17:45.900Z,52.00
2018-03-26T18:20:13.341Z,51.30
2018-03-26T18:22:40.831Z,51.20
2018-03-26T18:25:08.291Z,51.70
2018-03-26T18:27:35.752Z,52.10
2018-03-26T18:30:03.225Z,51.90
2018-03-26T18:32:31.449Z,52.70
2018-03-26T18:34:58.901Z,52.70
2018-03-26T18:37:27.126Z,52.90
2018-03-26T18:39:54.564Z,52.80
2018-03-26T18:42:22.277Z,53.00
2018-03-26T18:44:49.763Z,52.50
2018-03-26T18:47:17.217Z,53.00
2018-03-26T18:49:45.498Z,53.40
2018-03-26T18:52:13.692Z,54.30
2018-03-26T18:54:41.265Z,54.30
2018-03-26T18:57:08.810Z,54.60
2018-03-26T18:59:36.242Z,55.20
2018-03-26T19:02:04.448Z,55.30
2018-03-26T19:04:31.935Z,55.30
2018-03-26T19:06:59.405Z,55.70
2018-03-26T19:09:26.872Z,56.30
2018-03-26T19:11:54.334Z,57.70
2018-03-26T19:14:23.064Z,58.90
2018-03-26T19:16:50.529Z,58.80
2018-03-26T19:19:17.984Z,59.20
2018-03-26T19:21:45.455Z,59.60
2018-03-26T19:24:12.921Z,61.40
2018-03-26T19:26:40.381Z,60.50
2018-03-26T19:29:07.826Z,59.90
2018-03-26T19:31:35.295Z,59.70
2018-03-26T19:34:02.848Z,59.90
2018-03-26T19:36:30.310Z,59.80
2018-03-26T19:38:57.737Z,59.80
2018-03-26T19:41:25.185Z,59.40
2018-03-26T19:43:52.633Z,60.50
2018-03-26T19:46:20.134Z,61.60
2018-03-26T19:48:47.578Z,61.80
2018-03-26T19:51:15.057Z,61.80
2018-03-26T19:53:42.519Z,61.70
2018-03-26T19:56:09.964Z,62.30
2018-03-26T19:58:37.420Z,61.60
2018-03-26T20:01:04.852Z,63.10
2018-03-26T20:03:32.305Z,63.10
2018-03-26T20:05:59.769Z,63.50
2018-03-26T20:08:28.025Z,62.10
2018-03-26T20:10:56.604Z,63.20
2018-03-26T20:13:25.082Z,63.50
2018-03-26T20:15:53.325Z,62.80
2018-03-26T20:18:20.771Z,62.70
2018-03-26T20:20:48.453Z,63.10
2018-03-26T20:23:16.013Z,63.80
2018-03-26T20:25:43.447Z,62.60
2018-03-26T20:28:10.956Z,62.50
2018-03-26T20:30:38.389Z,63.30
2018-03-26T20:33:05.872Z,63.60
2018-03-26T20:35:34.169Z,63.00
2018-03-26T20:38:01.624Z,62.90
2018-03-26T20:40:29.070Z,63.20
2018-03-26T20:42:57.293Z,63.00
2018-03-26T20:45:24.777Z,62.90
2018-03-26T20:47:52.229Z,63.30
2018-03-26T20:50:19.686Z,63.60
2018-03-26T20:52:47.144Z,65.00
2018-03-26T20:55:14.619Z,64.60
2018-03-26T20:57:42.126Z,66.50
2018-03-26T21:00:09.603Z,68.00
2018-03-26T21:02:37.045Z,69.80
2018-03-26T21:05:04.504Z,71.60
2018-03-26T21:07:32.059Z,71.30
2018-03-26T21:09:59.545Z,72.40
2018-03-26T21:12:27.062Z,73.70
2018-03-26T21:14:55.286Z,73.20
2018-03-26T21:17:22.751Z,73.20
2018-03-26T21:19:50.217Z,77.30
2018-03-26T21:22:18.655Z,79.70
2018-03-26T21:24:46.102Z,80.10
2018-03-26T21:27:13.571Z,81.80
2018-03-26T21:29:41.034Z,84.10
2018-03-26T21:32:08.497Z,84.00
2018-03-26T21:34:35.952Z,87.00
2018-03-26T21:37:03.390Z,87.70
2018-03-26T21:39:30.835Z,86.10
2018-03-26T21:41:58.296Z,85.30
2018-03-26T21:44:25.749Z,84.70
2018-03-26T21:46:53.245Z,86.00
2018-03-26T21:49:20.792Z,85.70
2018-03-26T21:51:48.217Z,86.00
2018-03-26T21:54:15.681Z,86.20
2018-03-26T21:56:43.178Z,87.10
2018-03-26T21:59:10.648Z,87.60
2018-03-26T22:01:38.087Z,87.80
2018-03-26T22:04:05.536Z,87.10
2018-03-26T22:06:32.995Z,86.00
2018-03-26T22:09:00.486Z,85.40
2018-03-26T22:11:27.974Z,85.70
2018-03-26T22:13:56.209Z,84.10
2018-03-26T22:16:25.277Z,84.40
2018-03-26T22:18:52.730Z,84.30
2018-03-26T22:21:20.182Z,86.40
2018-03-26T22:23:47.637Z,86.70
2018-03-26T22:26:15.067Z,87.00
2018-03-26T22:28:43.296Z,87.40
2018-03-26T22:31:10.753Z,87.30
2018-03-26T22:33:38.193Z,88.40
2018-03-26T22:36:05.670Z,87.60
2018-03-26T22:38:34.795Z,86.70
2018-03-26T22:41:02.283Z,87.40
2018-03-26T22:43:30.729Z,87.40
2018-03-26T22:45:58.189Z,88.20
2018-03-26T22:48:25.643Z,88.70
2018-03-26T22:50:53.122Z,89.70
2018-03-26T22:53:21.410Z,89.40
2018-03-26T22:55:49.907Z,89.10
2018-03-26T22:58:18.097Z,88.60
2018-03-26T23:00:45.561Z,88.50
2018-03-26T23:03:13.043Z,88.50
2018-03-26T23:05:41.286Z,89.80
2018-03-26T23:08:08.749Z,89.80
2018-03-26T23:10:36.231Z,90.40
2018-03-26T23:13:03.670Z,90.10
2018-03-26T23:15:32.009Z,90.10
2018-03-26T23:18:00.224Z,90.30
2018-03-26T23:20:27.692Z,90.30
2018-03-26T23:22:55.173Z,90.10
2018-03-26T23:25:22.641Z,90.20
2018-03-26T23:27:50.081Z,90.40
2018-03-26T23:30:17.525Z,90.30
2018-03-26T23:32:44.964Z,89.60
2018-03-26T23:35:13.108Z,89.00
2018-03-26T23:37:41.330Z,89.60
2018-03-26T23:40:08.799Z,89.50
2018-03-26T23:42:36.293Z,90.10
2018-03-26T23:45:04.553Z,90.30
2018-03-26T23:47:32.007Z,90.30
2018-03-26T23:49:59.496Z,90.60
2018-03-26T23:52:26.941Z,90.20
2018-03-26T23:54:55.159Z,90.70
2018-03-26T23:57:22.611Z,90.60
2018-03-26T23:59:50.075Z,90.60
